createdAt,value
2018-10-18T00:01:06.253Z,60.10
2018-10-18T00:03:34.967Z,60.40
2018-10-18T00:06:03.441Z,60.40
2018-10-18T00:08:31.894Z,61.00
2018-10-18T00:11:00.348Z,61.70
2018-10-18T00:13:28.675Z,61.30
2018-10-18T00:15:57.918Z,62.00
2018-10-18T00:18:26.976Z,61.90
2018-10-18T00:20:56.419Z,62.00
2018-10-18T00:23:26.001Z,61.10
2018-10-18T00:25:54.387Z,61.80
2018-10-18T00:28:22.803Z,61.90
2018-10-18T00:30:51.290Z,61.80
2018-10-18T00:33:20.057Z,61.30
2018-10-18T00:35:48.945Z,61.30
2018-10-18T00:38:20.235Z,61.90
2018-10-18T00:40:49.206Z,61.90
2018-10-18T00:43:19.006Z,61.90
2018-10-18T00:45:47.702Z,62.80
2018-10-18T00:48:16.842Z,63.30
2018-10-18T00:50:45.917Z,63.50
2018-10-18T00:53:14.990Z,64.10
2018-10-18T00:55:43.471Z,64.40
2018-10-18T00:58:12.209Z,64.10
2018-10-18T01:00:41.103Z,64.40
2018-10-18T01:03:10.620Z,64.80
2018-10-18T01:05:39.045Z,65.10
2018-10-18T01:08:08.093Z,65.50
2018-10-18T01:13:07.601Z,65.80
2018-10-18T01:15:36.128Z,66.10
2018-10-18T01:18:05.100Z,66.20
2018-10-18T01:20:33.570Z,66.20
2018-10-18T01:23:02.083Z,66.80
2018-10-18T01:25:31.193Z,66.50
2018-10-18T01:27:59.785Z,65.80
2018-10-18T01:30:28.654Z,65.20
2018-10-18T01:32:57.156Z,65.60
2018-10-18T01:35:25.552Z,65.90
2018-10-18T01:37:53.935Z,65.50
2018-10-18T01:40:24.196Z,65.10
2018-10-18T01:42:53.336Z,65.60
2018-10-18T01:45:22.141Z,66.30
2018-10-18T01:47:50.864Z,65.50
2018-10-18T01:50:20.848Z,65.80
2018-10-18T01:52:50.228Z,66.10
2018-10-18T01:55:19.454Z,66.70
2018-10-18T01:57:48.408Z,66.80
2018-10-18T02:00:17.433Z,66.70
2018-10-18T02:02:46.491Z,66.60
2018-10-18T02:05:15.173Z,66.60
2018-10-18T02:07:43.559Z,66.90
2018-10-18T02:10:12.037Z,68.00
2018-10-18T02:12:40.543Z,67.20
2018-10-18T02:15:10.157Z,66.70
2018-10-18T02:17:39.243Z,67.20
2018-10-18T02:20:08.754Z,66.70
2018-10-18T02:22:37.536Z,66.10
2018-10-18T02:25:07.626Z,66.00
2018-10-18T02:27:35.952Z,66.00
2018-10-18T02:30:05.372Z,66.70
2018-10-18T02:32:33.705Z,67.00
2018-10-18T02:35:02.688Z,66.90
2018-10-18T02:37:31.119Z,67.20
2018-10-18T02:39:59.817Z,67.30
2018-10-18T02:42:29.188Z,66.70
2018-10-18T02:44:57.588Z,66.60
2018-10-18T02:47:26.051Z,66.50
2018-10-18T02:49:54.741Z,66.50
2018-10-18T02:52:23.300Z,66.90
2018-10-18T02:54:52.355Z,67.70
2018-10-18T02:57:20.807Z,67.40
2018-10-18T02:59:49.487Z,67.40
2018-10-18T03:02:19.784Z,67.70
2018-10-18T03:04:48.872Z,66.70
2018-10-18T03:07:17.253Z,66.50
2018-10-18T03:09:45.725Z,66.40
2018-10-18T03:12:14.223Z,66.50
2018-10-18T03:14:43.135Z,66.80
2018-10-18T03:17:11.704Z,67.50
2018-10-18T03:19:40.257Z,67.50
2018-10-18T03:22:08.969Z,67.20
2018-10-18T03:24:37.393Z,66.60
2018-10-18T03:27:06.176Z,66.60
2018-10-18T03:29:35.112Z,67.00
2018-10-18T03:32:03.614Z,66.70
2018-10-18T03:34:32.010Z,66.60
2018-10-18T03:37:00.544Z,66.40
2018-10-18T03:39:29.188Z,66.40
2018-10-18T03:41:58.622Z,67.30
2018-10-18T03:44:27.029Z,67.80
2018-10-18T03:46:55.460Z,67.90
2018-10-18T03:49:24.223Z,68.50
2018-10-18T03:51:52.639Z,68.80
2018-10-18T03:54:21.091Z,69.00
2018-10-18T03:56:49.457Z,68.40
2018-10-18T03:59:17.934Z,68.50
2018-10-18T04:01:46.303Z,68.60
2018-10-18T04:04:15.518Z,67.90
2018-10-18T04:06:44.507Z,67.90
2018-10-18T04:09:13.199Z,68.80
2018-10-18T04:11:43.378Z,69.40
2018-10-18T04:14:11.753Z,70.40
2018-10-18T04:16:40.307Z,69.90
2018-10-18T04:19:09.109Z,70.00
2018-10-18T04:21:37.902Z,70.50
2018-10-18T04:24:06.368Z,71.20
2018-10-18T04:26:35.505Z,71.10
2018-10-18T04:29:04.932Z,70.50
2018-10-18T04:31:33.438Z,71.10
2018-10-18T04:34:02.007Z,71.40
2018-10-18T04:36:30.802Z,71.70
2018-10-18T04:39:00.035Z,71.80
2018-10-18T04:41:29.370Z,72.30
2018-10-18T04:43:58.815Z,72.40
2018-10-18T04:46:27.493Z,71.60
2018-10-18T04:48:56.198Z,72.90
2018-10-18T04:51:24.586Z,72.30
2018-10-18T04:53:53.180Z,72.10
2018-10-18T04:58:50.865Z,71.50
2018-10-18T05:01:19.383Z,72.10
2018-10-18T05:03:48.388Z,72.10
2018-10-18T05:06:17.329Z,71.80
2018-10-18T05:08:45.970Z,71.20
2018-10-18T05:11:14.688Z,71.20
2018-10-18T05:13:45.316Z,71.00
2018-10-18T05:16:14.077Z,71.20
2018-10-18T05:18:42.833Z,70.90
2018-10-18T05:21:11.384Z,71.50
2018-10-18T05:23:39.955Z,71.90
2018-10-18T05:26:09.232Z,71.10
2018-10-18T05:28:37.674Z,71.10
2018-10-18T05:31:06.546Z,71.20
2018-10-18T05:33:36.202Z,71.10
2018-10-18T05:36:04.836Z,71.90
2018-10-18T05:38:33.710Z,71.70
2018-10-18T05:41:02.327Z,71.30
2018-10-18T05:43:30.881Z,70.50
2018-10-18T05:45:59.507Z,70.50
2018-10-18T05:48:27.985Z,71.20
2018-10-18T05:50:57.146Z,71.10
2018-10-18T05:53:25.687Z,71.10
2018-10-18T05:55:56.229Z,71.40
2018-10-18T06:00:54.370Z,71.80
2018-10-18T06:03:23.961Z,71.90
2018-10-18T06:05:53.980Z,72.50
2018-10-18T06:08:23.619Z,71.90
2018-10-18T06:11:09.351Z,71.70
2018-10-18T06:13:38.096Z,71.10
2018-10-18T06:16:07.456Z,71.60
2018-10-18T06:18:36.342Z,71.30
2018-10-18T06:23:35.627Z,70.60
2018-10-18T06:26:05.206Z,71.30
2018-10-18T06:28:34.550Z,71.30
2018-10-18T06:31:03.771Z,72.00
2018-10-18T06:33:32.570Z,70.90
2018-10-18T06:36:01.358Z,69.70
2018-10-18T06:38:31.317Z,70.20
2018-10-18T06:41:02.021Z,69.10
2018-10-18T06:43:36.371Z,68.40
2018-10-18T06:46:09.056Z,66.80
2018-10-18T06:48:38.760Z,66.30
2018-10-18T06:51:08.226Z,66.90
2018-10-18T06:53:37.412Z,66.60
2018-10-18T06:56:07.270Z,65.70
2018-10-18T06:58:36.576Z,66.50
2018-10-18T07:01:07.282Z,66.30
2018-10-18T07:03:37.236Z,66.40
2018-10-18T07:06:06.076Z,65.80
2018-10-18T07:11:05.818Z,64.60
2018-10-18T07:13:34.832Z,64.60
2018-10-18T07:16:04.821Z,64.10
2018-10-18T07:18:34.934Z,64.60
2018-10-18T07:21:05.162Z,64.50
2018-10-18T07:23:34.748Z,64.50
2018-10-18T07:26:03.943Z,64.40
2018-10-18T07:31:03.256Z,63.60
2018-10-18T07:33:33.144Z,64.40
2018-10-18T07:36:02.090Z,63.80
2018-10-18T07:38:33.255Z,63.70
2018-10-18T07:41:03.082Z,63.60
2018-10-18T07:43:33.794Z,64.00
2018-10-18T07:46:03.653Z,63.70
2018-10-18T07:48:33.244Z,63.90
2018-10-18T07:51:02.633Z,62.40
2018-10-18T07:53:32.520Z,63.00
2018-10-18T07:56:01.600Z,63.20
2018-10-18T07:58:31.119Z,62.30
2018-10-18T08:01:00.103Z,62.70
2018-10-18T08:03:29.092Z,60.80
2018-10-18T08:05:58.319Z,61.10
2018-10-18T08:08:27.648Z,61.30
2018-10-18T08:10:57.664Z,60.80
2018-10-18T08:13:27.033Z,61.10
2018-10-18T08:15:55.652Z,61.30
2018-10-18T08:18:25.142Z,60.20
2018-10-18T08:20:55.165Z,60.40
2018-10-18T08:23:23.672Z,60.40
2018-10-18T08:25:53.168Z,60.00
2018-10-18T08:28:22.683Z,58.90
2018-10-18T08:30:53.498Z,58.50
2018-10-18T08:33:23.712Z,58.80
2018-10-18T08:35:54.511Z,58.40
2018-10-18T08:38:23.803Z,58.40
2018-10-18T08:40:52.991Z,56.50
2018-10-18T08:43:23.742Z,56.90
2018-10-18T08:45:53.494Z,57.40
2018-10-18T08:48:22.102Z,56.90
2018-10-18T08:50:50.727Z,57.40
2018-10-18T08:53:20.611Z,56.20
2018-10-18T08:55:51.393Z,56.60
2018-10-18T08:58:21.548Z,55.90
2018-10-18T09:00:50.859Z,55.40
2018-10-18T09:03:19.820Z,54.60
2018-10-18T09:05:48.331Z,54.10
2018-10-18T09:08:18.396Z,53.60
2018-10-18T09:10:47.322Z,53.70
2018-10-18T09:13:16.558Z,53.00
2018-10-18T09:15:47.223Z,52.70
2018-10-18T09:18:16.444Z,52.40
2018-10-18T09:20:45.185Z,51.30
2018-10-18T09:23:15.371Z,51.20
2018-10-18T09:25:43.844Z,51.20
2018-10-18T09:28:13.115Z,50.70
2018-10-18T09:30:41.984Z,49.80
2018-10-18T09:35:39.216Z,49.00
2018-10-18T09:38:07.865Z,49.50
2018-10-18T09:40:37.487Z,49.50
2018-10-18T09:43:06.940Z,49.50
2018-10-18T09:45:36.141Z,49.00
2018-10-18T09:48:05.988Z,48.90
2018-10-18T09:50:35.680Z,49.00
2018-10-18T09:53:04.813Z,48.40
2018-10-18T09:55:34.440Z,47.80
2018-10-18T09:58:02.988Z,47.90
2018-10-18T10:00:37.341Z,47.70
2018-10-18T10:03:11.566Z,47.50
2018-10-18T10:05:40.194Z,47.30
2018-10-18T10:08:09.716Z,46.30
2018-10-18T10:10:38.635Z,46.80
2018-10-18T10:13:08.721Z,46.40
2018-10-18T10:15:38.209Z,46.70
2018-10-18T10:18:07.064Z,46.40
2018-10-18T10:20:36.273Z,46.90
2018-10-18T10:23:05.910Z,46.40
2018-10-18T10:25:36.391Z,45.10
2018-10-18T10:28:05.342Z,45.60
2018-10-18T10:30:35.210Z,45.60
2018-10-18T10:33:04.152Z,45.60
2018-10-18T10:35:32.660Z,45.70
2018-10-18T10:38:01.185Z,45.30
2018-10-18T10:40:29.841Z,45.30
2018-10-18T10:42:58.801Z,44.90
2018-10-18T10:45:27.334Z,44.70
2018-10-18T10:47:56.551Z,44.60
2018-10-18T10:50:27.707Z,43.70
2018-10-18T10:55:36.590Z,42.10
2018-10-18T10:58:06.077Z,42.40
2018-10-18T11:01:22.987Z,41.30
2018-10-18T11:03:54.024Z,40.50
2018-10-18T11:06:23.270Z,40.90
2018-10-18T11:08:52.499Z,40.20
2018-10-18T11:11:21.876Z,40.70
2018-10-18T11:13:51.793Z,40.90
2018-10-18T11:16:20.927Z,40.20
2018-10-18T11:18:49.881Z,40.00
2018-10-18T11:21:18.675Z,39.80
2018-10-18T11:23:47.243Z,39.90
2018-10-18T11:26:15.956Z,39.60
2018-10-18T11:28:44.629Z,39.60
2018-10-18T11:31:13.811Z,39.00
2018-10-18T11:33:43.288Z,38.00
2018-10-18T11:36:12.245Z,38.50
2018-10-18T11:38:41.968Z,39.50
2018-10-18T11:41:11.122Z,38.20
2018-10-18T11:43:40.936Z,38.60
2018-10-18T11:46:09.742Z,37.50
2018-10-18T11:48:39.889Z,37.90
2018-10-18T11:51:08.680Z,38.20
2018-10-18T11:53:37.158Z,37.70
2018-10-18T11:56:05.798Z,37.70
2018-10-18T11:58:34.352Z,37.00
2018-10-18T12:01:03.157Z,37.00
2018-10-18T12:03:32.243Z,36.90
2018-10-18T12:06:01.387Z,37.40
2018-10-18T12:08:30.874Z,37.90
2018-10-18T12:11:00.213Z,35.50
2018-10-18T12:13:28.963Z,34.60
2018-10-18T12:15:58.127Z,34.50
2018-10-18T12:18:27.234Z,34.70
2018-10-18T12:20:56.421Z,34.40
2018-10-18T12:23:25.033Z,35.00
2018-10-18T12:25:54.859Z,34.30
2018-10-18T12:28:24.171Z,33.30
2018-10-18T12:30:53.340Z,32.80
2018-10-18T12:33:22.000Z,32.90
2018-10-18T12:35:51.902Z,33.50
2018-10-18T12:38:21.493Z,33.10
2018-10-18T12:40:51.292Z,33.60
2018-10-18T12:43:20.664Z,31.80
2018-10-18T12:45:49.984Z,32.40
2018-10-18T12:48:19.394Z,32.80
2018-10-18T12:50:47.704Z,32.20
2018-10-18T12:53:17.562Z,32.40
2018-10-18T12:55:47.371Z,32.00
2018-10-18T12:58:16.913Z,32.60
2018-10-18T13:00:45.471Z,32.20
2018-10-18T13:03:16.202Z,32.60
2018-10-18T13:05:44.983Z,31.80
2018-10-18T13:08:13.864Z,31.10
2018-10-18T13:10:43.577Z,30.10
2018-10-18T13:13:13.744Z,29.20
2018-10-18T13:15:42.569Z,28.80
2018-10-18T13:20:40.759Z,26.60
2018-10-18T13:23:10.392Z,25.90
2018-10-18T13:25:39.074Z,24.80
2018-10-18T13:30:37.460Z,24.50
2018-10-18T13:33:06.762Z,24.80
2018-10-18T13:35:37.074Z,23.10
2018-10-18T13:38:06.804Z,23.60
2018-10-18T13:40:37.349Z,23.90
2018-10-18T13:43:06.374Z,24.50
2018-10-18T13:45:34.992Z,24.50
2018-10-18T13:48:04.825Z,25.20
2018-10-18T13:50:34.865Z,24.40
2018-10-18T13:53:04.240Z,24.40
2018-10-18T13:55:33.637Z,24.30
2018-10-18T13:58:03.249Z,24.80
2018-10-18T14:00:32.101Z,25.50
2018-10-18T14:03:03.758Z,26.00
2018-10-18T14:05:32.493Z,26.60
2018-10-18T14:08:01.635Z,26.80
2018-10-18T14:10:30.420Z,27.00
2018-10-18T14:12:59.994Z,27.30
2018-10-18T14:15:30.399Z,26.80
2018-10-18T14:18:01.156Z,25.70
2018-10-18T14:20:32.023Z,25.70
2018-10-18T14:23:01.729Z,26.10
2018-10-18T14:25:31.531Z,26.20
2018-10-18T14:28:01.921Z,26.90
2018-10-18T14:30:31.078Z,27.30
2018-10-18T14:32:59.653Z,26.30
2018-10-18T14:35:28.261Z,25.90
2018-10-18T14:37:58.218Z,26.10
2018-10-18T14:40:28.255Z,26.60
2018-10-18T14:42:57.281Z,27.20
2018-10-18T14:45:26.006Z,27.20
2018-10-18T14:47:55.282Z,28.10
2018-10-18T14:50:25.145Z,27.70
2018-10-18T14:52:55.604Z,28.10
2018-10-18T14:55:25.940Z,28.30
2018-10-18T14:57:55.709Z,28.70
2018-10-18T15:00:24.397Z,29.20
2018-10-18T15:02:52.895Z,29.20
2018-10-18T15:05:22.412Z,29.40
2018-10-18T15:07:51.523Z,29.70
2018-10-18T15:10:21.869Z,29.80
2018-10-18T15:12:51.113Z,30.40
2018-10-18T15:15:19.869Z,30.40
2018-10-18T15:17:49.382Z,30.30
2018-10-18T15:20:18.323Z,30.90
2018-10-18T15:22:46.877Z,31.00
2018-10-18T15:25:16.045Z,31.30
2018-10-18T15:27:44.821Z,31.80
2018-10-18T15:30:15.168Z,32.30
2018-10-18T15:32:43.838Z,32.30
2018-10-18T15:35:12.975Z,33.00
2018-10-18T15:37:42.330Z,33.40
2018-10-18T15:40:10.869Z,33.00
2018-10-18T15:42:40.564Z,33.50
2018-10-18T15:45:10.348Z,34.00
2018-10-18T15:47:39.303Z,35.10
2018-10-18T15:50:09.553Z,35.80
2018-10-18T15:52:38.085Z,36.50
2018-10-18T15:55:07.938Z,37.40
2018-10-18T15:57:37.205Z,37.50
2018-10-18T16:00:09.828Z,38.20
2018-10-18T16:02:38.453Z,38.90
2018-10-18T16:05:09.947Z,39.60
2018-10-18T16:07:39.028Z,40.00
2018-10-18T16:10:09.891Z,41.00
2018-10-18T16:12:39.572Z,41.30
2018-10-18T16:15:10.397Z,41.90
2018-10-18T16:17:39.970Z,41.80
2018-10-18T16:20:10.221Z,42.40
2018-10-18T16:22:42.148Z,43.00
2018-10-18T16:25:11.514Z,43.40
2018-10-18T16:27:41.667Z,43.80
2018-10-18T16:30:11.541Z,43.90
2018-10-18T16:32:41.214Z,44.40
2018-10-18T16:35:09.767Z,44.40
2018-10-18T16:37:39.533Z,44.60
2018-10-18T16:42:38.817Z,45.40
2018-10-18T16:45:10.986Z,45.60
2018-10-18T16:47:41.174Z,46.20
2018-10-18T16:50:11.269Z,46.10
2018-10-18T16:52:41.109Z,46.10
2018-10-18T16:55:11.445Z,46.00
2018-10-18T16:57:40.501Z,45.60
2018-10-18T17:00:10.332Z,46.00
2018-10-18T17:02:41.146Z,46.30
2018-10-18T17:05:10.769Z,46.20
2018-10-18T17:07:40.339Z,46.50
2018-10-18T17:10:09.507Z,46.60
2018-10-18T17:12:39.096Z,46.50
2018-10-18T17:15:08.796Z,47.10
2018-10-18T17:17:38.452Z,47.30
2018-10-18T17:20:07.507Z,47.60
2018-10-18T17:22:37.247Z,47.60
2018-10-18T17:25:07.077Z,48.00
2018-10-18T17:27:35.866Z,48.10
2018-10-18T17:30:05.384Z,48.40
2018-10-18T17:32:35.135Z,48.60
2018-10-18T17:35:04.688Z,48.80
2018-10-18T17:37:34.831Z,48.90
2018-10-18T17:40:04.658Z,49.30
2018-10-18T17:42:33.121Z,49.30
2018-10-18T17:45:02.373Z,49.50
2018-10-18T17:47:31.677Z,50.10
2018-10-18T17:50:00.226Z,50.20
2018-10-18T17:52:30.124Z,50.10
2018-10-18T17:54:59.259Z,50.20
2018-10-18T17:57:29.275Z,49.10
2018-10-18T17:59:58.947Z,50.70
2018-10-18T18:02:29.958Z,50.50
2018-10-18T18:04:59.200Z,51.10
2018-10-18T18:07:28.140Z,51.30
2018-10-18T18:09:57.425Z,50.90
2018-10-18T18:12:28.510Z,51.40
2018-10-18T18:14:57.302Z,51.40
2018-10-18T18:17:26.976Z,52.70
2018-10-18T18:19:56.538Z,52.00
2018-10-18T18:22:25.527Z,52.60
2018-10-18T18:24:55.452Z,52.10
2018-10-18T18:27:23.923Z,52.50
2018-10-18T18:29:52.282Z,53.30
2018-10-18T18:32:20.706Z,53.10
2018-10-18T18:34:49.181Z,52.80
2018-10-18T18:37:17.544Z,53.30
2018-10-18T18:39:45.968Z,53.80
2018-10-18T18:42:15.033Z,53.90
2018-10-18T18:44:43.442Z,54.30
2018-10-18T18:47:11.796Z,53.70
2018-10-18T18:49:40.569Z,54.20
2018-10-18T18:52:08.949Z,54.20
2018-10-18T18:54:38.143Z,54.20
2018-10-18T18:57:07.153Z,54.40
2018-10-18T18:59:37.203Z,54.50
2018-10-18T19:02:06.602Z,54.40
2018-10-18T19:04:35.143Z,54.50
2018-10-18T19:09:32.766Z,54.50
2018-10-18T19:12:01.840Z,54.60
2018-10-18T19:14:30.684Z,54.80
2018-10-18T19:16:59.811Z,55.10
2018-10-18T19:19:28.748Z,55.30
2018-10-18T19:21:57.228Z,55.30
2018-10-18T19:24:26.018Z,55.30
2018-10-18T19:26:56.023Z,55.30
2018-10-18T19:29:24.505Z,55.30
2018-10-18T19:31:53.372Z,55.70
2018-10-18T19:34:22.054Z,55.30
2018-10-18T19:36:50.372Z,55.80
2018-10-18T19:39:18.896Z,55.30
2018-10-18T19:41:47.261Z,55.80
2018-10-18T19:44:15.829Z,55.90
2018-10-18T19:46:44.490Z,55.60
2018-10-18T19:49:13.059Z,56.20
2018-10-18T19:51:41.453Z,55.90
2018-10-18T19:54:10.453Z,56.40
2018-10-18T19:56:39.446Z,56.30
2018-10-18T20:01:36.143Z,56.50
2018-10-18T20:04:04.747Z,57.00
2018-10-18T20:06:33.084Z,57.10
2018-10-18T20:09:01.432Z,56.90
2018-10-18T20:11:29.804Z,57.60
2018-10-18T20:13:59.471Z,57.30
2018-10-18T20:16:27.957Z,57.60
2018-10-18T20:18:57.095Z,57.40
2018-10-18T20:21:25.481Z,58.00
2018-10-18T20:23:53.901Z,58.00
2018-10-18T20:26:22.457Z,58.50
2018-10-18T20:28:50.783Z,58.00
2018-10-18T20:31:19.449Z,58.20
2018-10-18T20:33:48.594Z,58.90
2018-10-18T20:36:17.367Z,58.90
2018-10-18T20:38:46.196Z,59.00
2018-10-18T20:41:15.364Z,59.30
2018-10-18T20:43:43.694Z,59.60
2018-10-18T20:46:13.099Z,59.70
2018-10-18T20:48:41.488Z,59.60
2018-10-18T20:51:09.939Z,59.80
2018-10-18T20:53:38.584Z,60.20
2018-10-18T20:56:06.960Z,59.90
2018-10-18T20:58:36.505Z,60.00
2018-10-18T21:01:06.526Z,60.10
2018-10-18T21:03:34.969Z,60.50
2018-10-18T21:06:03.745Z,60.80
2018-10-18T21:08:32.560Z,61.00
2018-10-18T21:11:01.082Z,61.30
2018-10-18T21:13:29.585Z,61.40
2018-10-18T21:15:58.135Z,61.10
2018-10-18T21:18:26.567Z,61.80
2018-10-18T21:23:23.371Z,61.30
2018-10-18T21:25:52.707Z,61.70
2018-10-18T21:28:21.728Z,62.30
2018-10-18T21:30:50.322Z,62.20
2018-10-18T21:33:18.832Z,62.60
2018-10-18T21:35:47.967Z,62.60
2018-10-18T21:38:16.430Z,63.40
2018-10-18T21:40:45.091Z,62.50
2018-10-18T21:43:13.436Z,63.20
2018-10-18T21:45:48.880Z,63.20
2018-10-18T21:48:18.021Z,63.20
2018-10-18T21:50:47.725Z,63.40
2018-10-18T21:53:16.466Z,63.90
2018-10-18T21:55:44.862Z,63.30
2018-10-18T21:58:13.245Z,64.60
2018-10-18T22:00:44.268Z,63.70
2018-10-18T22:03:13.414Z,64.00
2018-10-18T22:05:43.116Z,63.80
2018-10-18T22:08:11.526Z,64.20
2018-10-18T22:10:40.903Z,64.60
2018-10-18T22:15:38.546Z,64.30
2018-10-18T22:18:07.710Z,64.60
2018-10-18T22:20:36.457Z,65.10
2018-10-18T22:23:05.480Z,65.20
2018-10-18T22:25:34.251Z,65.20
2018-10-18T22:28:02.883Z,65.30
2018-10-18T22:30:31.245Z,65.40
2018-10-18T22:32:59.619Z,65.40
2018-10-18T22:35:27.958Z,65.50
2018-10-18T22:37:57.285Z,65.40
2018-10-18T22:40:25.797Z,65.40
2018-10-18T22:42:54.264Z,65.20
2018-10-18T22:45:23.631Z,65.60
2018-10-18T22:50:20.752Z,64.90
2018-10-18T22:52:49.083Z,66.00
2018-10-18T22:55:18.844Z,66.00
2018-10-18T22:57:47.161Z,66.00
2018-10-18T23:00:15.872Z,66.50
2018-10-18T23:02:44.526Z,66.60
2018-10-18T23:05:13.805Z,66.40
2018-10-18T23:07:42.222Z,66.50
2018-10-18T23:10:10.887Z,66.10
2018-10-18T23:12:39.514Z,66.00
2018-10-18T23:15:09.521Z,66.70
2018-10-18T23:17:38.197Z,66.60
2018-10-18T23:20:08.312Z,66.60
2018-10-18T23:22:37.105Z,66.20
2018-10-18T23:25:06.520Z,66.50
2018-10-18T23:27:34.917Z,66.90
2018-10-18T23:30:04.795Z,67.10
2018-10-18T23:32:33.584Z,66.60
2018-10-18T23:35:02.727Z,67.00
2018-10-18T23:37:31.345Z,66.50
2018-10-18T23:40:00.413Z,66.80
2018-10-18T23:44:57.416Z,66.50
2018-10-18T23:47:25.754Z,67.00
2018-10-18T23:49:54.204Z,67.50
2018-10-18T23:52:22.985Z,67.50
2018-10-18T23:54:52.571Z,67.50
2018-10-18T23:57:23.493Z,67.60
2018-10-18T23:59:52.121Z,67.90
